sensor_id;sensor_type;location;lat;lon;timestamp;P1;durP1;ratioP1;P2;durP2;ratioP2
5587;SDS011;2816;49.778;9.986;2022-08-19T00:01:27;27.90;;;21.07;;
5587;SDS011;2816;49.778;9.986;2022-08-19T00:03:56;24.17;;;19.80;;
5587;SDS011;2816;49.778;9.986;2022-08-19T00:06:24;22.23;;;18.70;;
5587;SDS011;2816;49.778;9.986;2022-08-19T00:08:51;34.03;;;20.63;;
5587;SDS011;2816;49.778;9.986;2022-08-19T00:11:19;26.87;;;20.80;;
5587;SDS011;2816;49.778;9.986;2022-08-19T00:13:47;23.03;;;20.50;;
5587;SDS011;2816;49.778;9.986;2022-08-19T00:16:15;26.70;;;19.63;;
5587;SDS011;2816;49.778;9.986;2022-08-19T00:18:43;24.67;;;20.60;;
5587;SDS011;2816;49.778;9.986;2022-08-19T00:21:10;28.10;;;19.10;;
5587;SDS011;2816;49.778;9.986;2022-08-19T00:23:37;24.10;;;20.17;;
5587;SDS011;2816;49.778;9.986;2022-08-19T00:26:04;23.73;;;20.13;;
5587;SDS011;2816;49.778;9.986;2022-08-19T00:28:32;20.63;;;18.00;;
5587;SDS011;2816;49.778;9.986;2022-08-19T00:31:00;24.37;;;19.20;;
5587;SDS011;2816;49.778;9.986;2022-08-19T00:33:28;25.00;;;21.37;;
5587;SDS011;2816;49.778;9.986;2022-08-19T00:35:57;26.33;;;20.43;;
5587;SDS011;2816;49.778;9.986;2022-08-19T00:38:24;29.20;;;21.60;;
5587;SDS011;2816;49.778;9.986;2022-08-19T00:40:51;20.33;;;18.00;;
5587;SDS011;2816;49.778;9.986;2022-08-19T00:43:19;24.20;;;20.73;;
5587;SDS011;2816;49.778;9.986;2022-08-19T00:45:48;26.70;;;21.00;;
5587;SDS011;2816;49.778;9.986;2022-08-19T00:48:17;25.27;;;19.10;;
5587;SDS011;2816;49.778;9.986;2022-08-19T00:50:44;28.13;;;20.30;;
5587;SDS011;2816;49.778;9.986;2022-08-19T00:53:12;26.37;;;21.50;;
5587;SDS011;2816;49.778;9.986;2022-08-19T00:55:42;27.20;;;20.90;;
5587;SDS011;2816;49.778;9.986;2022-08-19T00:58:18;25.00;;;20.33;;
5587;SDS011;2816;49.778;9.986;2022-08-19T01:00:47;25.10;;;20.00;;
5587;SDS011;2816;49.778;9.986;2022-08-19T01:03:16;27.07;;;19.67;;
5587;SDS011;2816;49.778;9.986;2022-08-19T01:05:44;26.23;;;20.07;;
5587;SDS011;2816;49.778;9.986;2022-08-19T01:08:13;25.87;;;20.37;;
5587;SDS011;2816;49.778;9.986;2022-08-19T01:10:43;23.80;;;18.97;;
5587;SDS011;2816;49.778;9.986;2022-08-19T01:13:13;27.20;;;20.20;;
5587;SDS011;2816;49.778;9.986;2022-08-19T01:15:42;25.03;;;20.53;;
5587;SDS011;2816;49.778;9.986;2022-08-19T01:18:13;27.83;;;21.03;;
5587;SDS011;2816;49.778;9.986;2022-08-19T01:20:42;26.07;;;21.00;;
5587;SDS011;2816;49.778;9.986;2022-08-19T01:23:11;25.50;;;19.37;;
5587;SDS011;2816;49.778;9.986;2022-08-19T01:25:41;24.03;;;19.00;;
5587;SDS011;2816;49.778;9.986;2022-08-19T01:28:14;25.30;;;20.13;;
5587;SDS011;2816;49.778;9.986;2022-08-19T01:30:43;21.33;;;17.53;;
5587;SDS011;2816;49.778;9.986;2022-08-19T01:33:11;21.33;;;17.93;;
5587;SDS011;2816;49.778;9.986;2022-08-19T01:35:38;25.93;;;17.73;;
5587;SDS011;2816;49.778;9.986;2022-08-19T01:38:06;27.30;;;20.47;;
5587;SDS011;2816;49.778;9.986;2022-08-19T01:40:37;26.13;;;19.67;;
5587;SDS011;2816;49.778;9.986;2022-08-19T01:43:07;20.00;;;16.37;;
5587;SDS011;2816;49.778;9.986;2022-08-19T01:45:34;27.43;;;20.53;;
5587;SDS011;2816;49.778;9.986;2022-08-19T01:48:05;24.97;;;20.47;;
5587;SDS011;2816;49.778;9.986;2022-08-19T01:50:33;27.50;;;20.77;;
5587;SDS011;2816;49.778;9.986;2022-08-19T01:53:01;24.07;;;20.00;;
5587;SDS011;2816;49.778;9.986;2022-08-19T01:55:30;22.43;;;19.20;;
5587;SDS011;2816;49.778;9.986;2022-08-19T01:57:59;24.63;;;19.13;;
5587;SDS011;2816;49.778;9.986;2022-08-19T02:00:31;24.00;;;18.30;;
5587;SDS011;2816;49.778;9.986;2022-08-19T02:02:58;19.93;;;16.43;;
5587;SDS011;2816;49.778;9.986;2022-08-19T02:05:26;24.47;;;19.43;;
5587;SDS011;2816;49.778;9.986;2022-08-19T02:07:54;21.97;;;16.27;;
5587;SDS011;2816;49.778;9.986;2022-08-19T02:10:21;21.87;;;18.10;;
5587;SDS011;2816;49.778;9.986;2022-08-19T02:12:49;25.40;;;18.40;;
5587;SDS011;2816;49.778;9.986;2022-08-19T02:15:17;23.00;;;17.50;;
5587;SDS011;2816;49.778;9.986;2022-08-19T02:17:47;20.63;;;17.23;;
5587;SDS011;2816;49.778;9.986;2022-08-19T02:20:14;23.33;;;18.47;;
5587;SDS011;2816;49.778;9.986;2022-08-19T02:22:42;26.77;;;19.13;;
5587;SDS011;2816;49.778;9.986;2022-08-19T02:25:10;20.30;;;17.07;;
5587;SDS011;2816;49.778;9.986;2022-08-19T02:27:38;22.50;;;19.13;;
5587;SDS011;2816;49.778;9.986;2022-08-19T02:30:06;23.40;;;17.73;;
5587;SDS011;2816;49.778;9.986;2022-08-19T02:32:36;24.43;;;18.90;;
5587;SDS011;2816;49.778;9.986;2022-08-19T02:35:04;25.80;;;18.90;;
5587;SDS011;2816;49.778;9.986;2022-08-19T02:37:32;25.77;;;19.50;;
5587;SDS011;2816;49.778;9.986;2022-08-19T02:40:16;25.57;;;19.23;;
5587;SDS011;2816;49.778;9.986;2022-08-19T02:42:43;22.13;;;18.43;;
5587;SDS011;2816;49.778;9.986;2022-08-19T02:45:10;24.00;;;19.20;;
5587;SDS011;2816;49.778;9.986;2022-08-19T02:47:39;25.57;;;17.60;;
5587;SDS011;2816;49.778;9.986;2022-08-19T02:50:07;22.70;;;18.27;;
5587;SDS011;2816;49.778;9.986;2022-08-19T02:52:34;25.40;;;18.67;;
5587;SDS011;2816;49.778;9.986;2022-08-19T02:55:01;24.47;;;19.17;;
5587;SDS011;2816;49.778;9.986;2022-08-19T02:57:29;22.80;;;18.77;;
5587;SDS011;2816;49.778;9.986;2022-08-19T02:59:57;26.07;;;18.97;;
5587;SDS011;2816;49.778;9.986;2022-08-19T03:02:24;26.93;;;18.83;;
5587;SDS011;2816;49.778;9.986;2022-08-19T03:04:53;21.60;;;16.20;;
5587;SDS011;2816;49.778;9.986;2022-08-19T03:07:20;27.00;;;18.20;;
5587;SDS011;2816;49.778;9.986;2022-08-19T03:09:47;22.03;;;16.97;;
5587;SDS011;2816;49.778;9.986;2022-08-19T03:12:14;24.70;;;18.77;;
5587;SDS011;2816;49.778;9.986;2022-08-19T03:14:41;23.23;;;17.80;;
5587;SDS011;2816;49.778;9.986;2022-08-19T03:17:08;23.53;;;18.90;;
5587;SDS011;2816;49.778;9.986;2022-08-19T03:19:35;24.93;;;18.50;;
5587;SDS011;2816;49.778;9.986;2022-08-19T03:22:04;29.20;;;19.20;;
5587;SDS011;2816;49.778;9.986;2022-08-19T03:24:33;19.80;;;15.63;;
5587;SDS011;2816;49.778;9.986;2022-08-19T03:27:00;23.30;;;19.03;;
5587;SDS011;2816;49.778;9.986;2022-08-19T03:29:30;24.23;;;18.73;;
5587;SDS011;2816;49.778;9.986;2022-08-19T03:31:58;24.40;;;18.20;;
5587;SDS011;2816;49.778;9.986;2022-08-19T03:34:28;30.70;;;18.40;;
5587;SDS011;2816;49.778;9.986;2022-08-19T03:36:57;20.40;;;16.80;;
5587;SDS011;2816;49.778;9.986;2022-08-19T03:39:27;17.87;;;14.77;;
5587;SDS011;2816;49.778;9.986;2022-08-19T03:41:54;20.77;;;17.40;;
5587;SDS011;2816;49.778;9.986;2022-08-19T03:44:25;22.73;;;17.33;;
5587;SDS011;2816;49.778;9.986;2022-08-19T03:46:52;21.40;;;17.40;;
5587;SDS011;2816;49.778;9.986;2022-08-19T03:49:22;21.10;;;16.30;;
5587;SDS011;2816;49.778;9.986;2022-08-19T03:51:50;20.80;;;15.33;;
5587;SDS011;2816;49.778;9.986;2022-08-19T03:54:17;26.93;;;19.33;;
5587;SDS011;2816;49.778;9.986;2022-08-19T03:56:50;23.90;;;17.80;;
5587;SDS011;2816;49.778;9.986;2022-08-19T03:59:19;23.30;;;15.73;;
5587;SDS011;2816;49.778;9.986;2022-08-19T04:01:51;18.90;;;15.13;;
5587;SDS011;2816;49.778;9.986;2022-08-19T04:04:18;19.17;;;14.53;;
5587;SDS011;2816;49.778;9.986;2022-08-19T04:06:46;20.90;;;17.33;;
5587;SDS011;2816;49.778;9.986;2022-08-19T04:09:13;19.33;;;15.10;;
5587;SDS011;2816;49.778;9.986;2022-08-19T04:11:44;21.30;;;16.30;;
5587;SDS011;2816;49.778;9.986;2022-08-19T04:14:15;21.90;;;16.50;;
5587;SDS011;2816;49.778;9.986;2022-08-19T04:16:43;22.07;;;18.03;;
5587;SDS011;2816;49.778;9.986;2022-08-19T04:19:11;25.27;;;16.50;;
5587;SDS011;2816;49.778;9.986;2022-08-19T04:21:38;20.70;;;17.00;;
5587;SDS011;2816;49.778;9.986;2022-08-19T04:24:06;22.07;;;17.63;;
5587;SDS011;2816;49.778;9.986;2022-08-19T04:26:35;24.40;;;18.10;;
5587;SDS011;2816;49.778;9.986;2022-08-19T04:29:06;22.90;;;17.20;;
5587;SDS011;2816;49.778;9.986;2022-08-19T04:31:36;25.60;;;19.10;;
5587;SDS011;2816;49.778;9.986;2022-08-19T04:34:04;24.13;;;18.57;;
5587;SDS011;2816;49.778;9.986;2022-08-19T04:36:34;21.00;;;17.93;;
5587;SDS011;2816;49.778;9.986;2022-08-19T04:39:03;21.17;;;17.43;;
5587;SDS011;2816;49.778;9.986;2022-08-19T04:41:31;25.50;;;18.33;;
5587;SDS011;2816;49.778;9.986;2022-08-19T04:44:16;23.40;;;18.03;;
5587;SDS011;2816;49.778;9.986;2022-08-19T04:46:45;22.73;;;17.10;;
5587;SDS011;2816;49.778;9.986;2022-08-19T04:49:13;20.20;;;15.90;;
5587;SDS011;2816;49.778;9.986;2022-08-19T04:51:42;22.33;;;15.43;;
5587;SDS011;2816;49.778;9.986;2022-08-19T04:54:12;20.83;;;16.60;;
5587;SDS011;2816;49.778;9.986;2022-08-19T04:56:39;21.50;;;17.00;;
5587;SDS011;2816;49.778;9.986;2022-08-19T04:59:07;22.70;;;14.83;;
5587;SDS011;2816;49.778;9.986;2022-08-19T05:01:36;23.27;;;17.60;;
5587;SDS011;2816;49.778;9.986;2022-08-19T05:04:05;23.00;;;17.87;;
5587;SDS011;2816;49.778;9.986;2022-08-19T05:06:33;23.30;;;17.90;;
5587;SDS011;2816;49.778;9.986;2022-08-19T05:09:02;23.37;;;17.80;;
5587;SDS011;2816;49.778;9.986;2022-08-19T05:11:30;22.63;;;17.60;;
5587;SDS011;2816;49.778;9.986;2022-08-19T05:13:59;24.57;;;18.10;;
5587;SDS011;2816;49.778;9.986;2022-08-19T05:16:26;20.87;;;17.20;;
5587;SDS011;2816;49.778;9.986;2022-08-19T05:18:54;23.73;;;17.10;;
5587;SDS011;2816;49.778;9.986;2022-08-19T05:21:40;22.03;;;18.23;;
5587;SDS011;2816;49.778;9.986;2022-08-19T05:24:24;20.40;;;16.40;;
5587;SDS011;2816;49.778;9.986;2022-08-19T05:26:52;23.30;;;16.40;;
5587;SDS011;2816;49.778;9.986;2022-08-19T05:29:22;20.63;;;15.90;;
5587;SDS011;2816;49.778;9.986;2022-08-19T05:31:50;23.13;;;17.93;;
5587;SDS011;2816;49.778;9.986;2022-08-19T05:34:18;22.93;;;17.70;;
5587;SDS011;2816;49.778;9.986;2022-08-19T05:36:48;21.60;;;17.30;;
5587;SDS011;2816;49.778;9.986;2022-08-19T05:39:22;24.10;;;16.77;;
5587;SDS011;2816;49.778;9.986;2022-08-19T05:41:51;21.43;;;17.23;;
5587;SDS011;2816;49.778;9.986;2022-08-19T05:44:22;19.47;;;16.40;;
5587;SDS011;2816;49.778;9.986;2022-08-19T05:46:50;18.60;;;15.03;;
5587;SDS011;2816;49.778;9.986;2022-08-19T05:49:20;23.53;;;16.40;;
5587;SDS011;2816;49.778;9.986;2022-08-19T05:51:49;19.50;;;16.63;;
5587;SDS011;2816;49.778;9.986;2022-08-19T05:54:17;24.23;;;16.50;;
5587;SDS011;2816;49.778;9.986;2022-08-19T05:56:45;21.40;;;16.03;;
5587;SDS011;2816;49.778;9.986;2022-08-19T05:59:13;26.27;;;16.23;;
5587;SDS011;2816;49.778;9.986;2022-08-19T06:01:41;22.43;;;14.93;;
5587;SDS011;2816;49.778;9.986;2022-08-19T06:04:09;27.80;;;16.13;;
5587;SDS011;2816;49.778;9.986;2022-08-19T06:06:38;24.77;;;15.93;;
5587;SDS011;2816;49.778;9.986;2022-08-19T06:09:07;23.90;;;13.53;;
5587;SDS011;2816;49.778;9.986;2022-08-19T06:11:36;21.20;;;15.50;;
5587;SDS011;2816;49.778;9.986;2022-08-19T06:14:07;21.30;;;14.47;;
5587;SDS011;2816;49.778;9.986;2022-08-19T06:16:36;18.63;;;14.80;;
5587;SDS011;2816;49.778;9.986;2022-08-19T06:19:04;19.87;;;15.03;;
5587;SDS011;2816;49.778;9.986;2022-08-19T06:21:34;16.37;;;13.87;;
5587;SDS011;2816;49.778;9.986;2022-08-19T06:24:03;17.03;;;15.20;;
5587;SDS011;2816;49.778;9.986;2022-08-19T06:26:34;23.60;;;16.47;;
5587;SDS011;2816;49.778;9.986;2022-08-19T06:29:03;19.80;;;14.40;;
5587;SDS011;2816;49.778;9.986;2022-08-19T06:31:32;21.53;;;15.70;;
5587;SDS011;2816;49.778;9.986;2022-08-19T06:34:01;19.00;;;14.40;;
5587;SDS011;2816;49.778;9.986;2022-08-19T06:36:30;16.87;;;13.67;;
5587;SDS011;2816;49.778;9.986;2022-08-19T06:38:59;18.90;;;14.90;;
5587;SDS011;2816;49.778;9.986;2022-08-19T06:41:27;20.10;;;14.17;;
5587;SDS011;2816;49.778;9.986;2022-08-19T06:43:56;14.20;;;11.57;;
5587;SDS011;2816;49.778;9.986;2022-08-19T06:46:23;15.23;;;11.23;;
5587;SDS011;2816;49.778;9.986;2022-08-19T06:48:51;22.60;;;13.03;;
5587;SDS011;2816;49.778;9.986;2022-08-19T06:51:20;17.10;;;12.33;;
5587;SDS011;2816;49.778;9.986;2022-08-19T06:53:49;16.20;;;11.60;;
5587;SDS011;2816;49.778;9.986;2022-08-19T06:56:18;18.67;;;14.60;;
5587;SDS011;2816;49.778;9.986;2022-08-19T06:58:47;16.50;;;13.57;;
5587;SDS011;2816;49.778;9.986;2022-08-19T07:01:17;19.80;;;14.17;;
5587;SDS011;2816;49.778;9.986;2022-08-19T07:03:46;26.03;;;14.40;;
5587;SDS011;2816;49.778;9.986;2022-08-19T07:06:14;16.13;;;13.50;;
5587;SDS011;2816;49.778;9.986;2022-08-19T07:08:42;19.50;;;14.40;;
5587;SDS011;2816;49.778;9.986;2022-08-19T07:11:11;21.80;;;13.50;;
5587;SDS011;2816;49.778;9.986;2022-08-19T07:13:40;16.77;;;14.23;;
5587;SDS011;2816;49.778;9.986;2022-08-19T07:16:09;17.43;;;13.57;;
5587;SDS011;2816;49.778;9.986;2022-08-19T07:18:39;16.30;;;13.53;;
5587;SDS011;2816;49.778;9.986;2022-08-19T07:21:07;14.97;;;12.00;;
5587;SDS011;2816;49.778;9.986;2022-08-19T07:23:36;16.37;;;14.00;;
5587;SDS011;2816;49.778;9.986;2022-08-19T07:26:04;16.83;;;13.20;;
5587;SDS011;2816;49.778;9.986;2022-08-19T07:28:32;20.70;;;13.20;;
5587;SDS011;2816;49.778;9.986;2022-08-19T07:30:58;13.23;;;10.03;;
5587;SDS011;2816;49.778;9.986;2022-08-19T07:33:26;20.67;;;14.40;;
5587;SDS011;2816;49.778;9.986;2022-08-19T07:35:58;16.10;;;12.50;;
5587;SDS011;2816;49.778;9.986;2022-08-19T07:38:25;19.60;;;13.60;;
5587;SDS011;2816;49.778;9.986;2022-08-19T07:40:52;14.67;;;11.57;;
5587;SDS011;2816;49.778;9.986;2022-08-19T07:43:19;15.90;;;13.70;;
5587;SDS011;2816;49.778;9.986;2022-08-19T07:45:50;16.93;;;13.00;;
5587;SDS011;2816;49.778;9.986;2022-08-19T07:48:17;21.37;;;12.27;;
5587;SDS011;2816;49.778;9.986;2022-08-19T07:50:44;11.67;;;10.47;;
5587;SDS011;2816;49.778;9.986;2022-08-19T07:53:14;23.57;;;14.93;;
5587;SDS011;2816;49.778;9.986;2022-08-19T07:55:41;16.20;;;12.97;;
5587;SDS011;2816;49.778;9.986;2022-08-19T07:58:09;13.87;;;12.33;;
5587;SDS011;2816;49.778;9.986;2022-08-19T08:00:36;17.37;;;11.87;;
5587;SDS011;2816;49.778;9.986;2022-08-19T08:03:03;15.00;;;12.20;;
5587;SDS011;2816;49.778;9.986;2022-08-19T08:05:30;15.50;;;11.93;;
5587;SDS011;2816;49.778;9.986;2022-08-19T08:08:16;14.03;;;12.53;;
5587;SDS011;2816;49.778;9.986;2022-08-19T08:11:03;14.80;;;12.60;;
5587;SDS011;2816;49.778;9.986;2022-08-19T08:13:30;14.97;;;12.57;;
5587;SDS011;2816;49.778;9.986;2022-08-19T08:15:58;13.70;;;12.00;;
5587;SDS011;2816;49.778;9.986;2022-08-19T08:18:25;12.50;;;11.20;;
5587;SDS011;2816;49.778;9.986;2022-08-19T08:20:52;15.27;;;13.67;;
5587;SDS011;2816;49.778;9.986;2022-08-19T08:23:20;17.43;;;11.80;;
5587;SDS011;2816;49.778;9.986;2022-08-19T08:25:51;18.53;;;12.70;;
5587;SDS011;2816;49.778;9.986;2022-08-19T08:28:19;14.17;;;12.63;;
5587;SDS011;2816;49.778;9.986;2022-08-19T08:30:47;18.83;;;13.10;;
5587;SDS011;2816;49.778;9.986;2022-08-19T08:33:17;19.90;;;12.83;;
5587;SDS011;2816;49.778;9.986;2022-08-19T08:35:44;14.10;;;12.30;;
5587;SDS011;2816;49.778;9.986;2022-08-19T08:38:11;14.63;;;11.17;;
5587;SDS011;2816;49.778;9.986;2022-08-19T08:40:42;19.50;;;13.03;;
5587;SDS011;2816;49.778;9.986;2022-08-19T08:43:18;22.30;;;11.90;;
5587;SDS011;2816;49.778;9.986;2022-08-19T08:45:50;14.70;;;12.37;;
5587;SDS011;2816;49.778;9.986;2022-08-19T08:48:28;25.73;;;13.23;;
5587;SDS011;2816;49.778;9.986;2022-08-19T08:51:01;16.93;;;12.00;;
5587;SDS011;2816;49.778;9.986;2022-08-19T08:53:31;20.73;;;12.13;;
5587;SDS011;2816;49.778;9.986;2022-08-19T08:56:01;13.00;;;10.60;;
5587;SDS011;2816;49.778;9.986;2022-08-19T08:58:35;15.03;;;11.40;;
5587;SDS011;2816;49.778;9.986;2022-08-19T09:01:09;13.40;;;11.53;;
5587;SDS011;2816;49.778;9.986;2022-08-19T09:03:37;15.87;;;12.07;;
5587;SDS011;2816;49.778;9.986;2022-08-19T09:06:07;12.80;;;10.80;;
5587;SDS011;2816;49.778;9.986;2022-08-19T09:08:43;13.70;;;11.00;;
5587;SDS011;2816;49.778;9.986;2022-08-19T09:11:18;27.23;;;11.67;;
5587;SDS011;2816;49.778;9.986;2022-08-19T09:14:02;18.63;;;10.47;;
5587;SDS011;2816;49.778;9.986;2022-08-19T09:16:39;13.10;;;10.90;;
5587;SDS011;2816;49.778;9.986;2022-08-19T09:19:07;12.57;;;10.67;;
5587;SDS011;2816;49.778;9.986;2022-08-19T09:21:35;16.60;;;10.90;;
5587;SDS011;2816;49.778;9.986;2022-08-19T09:24:03;18.87;;;11.93;;
5587;SDS011;2816;49.778;9.986;2022-08-19T09:26:33;19.77;;;11.60;;
5587;SDS011;2816;49.778;9.986;2022-08-19T09:29:00;14.83;;;11.63;;
5587;SDS011;2816;49.778;9.986;2022-08-19T09:31:30;18.53;;;11.47;;
5587;SDS011;2816;49.778;9.986;2022-08-19T09:33:58;21.17;;;11.80;;
5587;SDS011;2816;49.778;9.986;2022-08-19T09:36:30;14.90;;;11.00;;
5587;SDS011;2816;49.778;9.986;2022-08-19T09:38:59;12.13;;;9.40;;
5587;SDS011;2816;49.778;9.986;2022-08-19T09:41:26;12.47;;;10.67;;
5587;SDS011;2816;49.778;9.986;2022-08-19T09:43:55;14.83;;;10.80;;
5587;SDS011;2816;49.778;9.986;2022-08-19T09:46:24;16.80;;;10.80;;
5587;SDS011;2816;49.778;9.986;2022-08-19T09:48:59;22.87;;;11.47;;
5587;SDS011;2816;49.778;9.986;2022-08-19T09:51:26;21.03;;;11.37;;
5587;SDS011;2816;49.778;9.986;2022-08-19T09:53:54;10.73;;;9.63;;
5587;SDS011;2816;49.778;9.986;2022-08-19T09:56:25;13.80;;;9.80;;
5587;SDS011;2816;49.778;9.986;2022-08-19T09:58:52;12.97;;;10.63;;
5587;SDS011;2816;49.778;9.986;2022-08-19T10:01:21;14.30;;;10.73;;
5587;SDS011;2816;49.778;9.986;2022-08-19T10:03:50;17.17;;;11.50;;
5587;SDS011;2816;49.778;9.986;2022-08-19T10:06:19;14.77;;;9.77;;
5587;SDS011;2816;49.778;9.986;2022-08-19T10:08:47;15.50;;;11.17;;
5587;SDS011;2816;49.778;9.986;2022-08-19T10:11:16;10.93;;;9.90;;
5587;SDS011;2816;49.778;9.986;2022-08-19T10:13:44;12.10;;;10.77;;
5587;SDS011;2816;49.778;9.986;2022-08-19T10:16:12;12.83;;;9.77;;
5587;SDS011;2816;49.778;9.986;2022-08-19T10:18:44;15.30;;;10.97;;
5587;SDS011;2816;49.778;9.986;2022-08-19T10:21:14;16.33;;;9.10;;
5587;SDS011;2816;49.778;9.986;2022-08-19T10:23:44;10.90;;;8.10;;
5587;SDS011;2816;49.778;9.986;2022-08-19T10:26:14;13.50;;;8.37;;
5587;SDS011;2816;49.778;9.986;2022-08-19T10:28:42;7.50;;;6.80;;
5587;SDS011;2816;49.778;9.986;2022-08-19T10:31:10;8.23;;;6.20;;
5587;SDS011;2816;49.778;9.986;2022-08-19T10:33:39;9.30;;;6.20;;
5587;SDS011;2816;49.778;9.986;2022-08-19T10:36:09;8.00;;;6.40;;
5587;SDS011;2816;49.778;9.986;2022-08-19T10:38:40;7.90;;;6.30;;
5587;SDS011;2816;49.778;9.986;2022-08-19T10:41:10;9.43;;;6.23;;
5587;SDS011;2816;49.778;9.986;2022-08-19T10:43:38;8.97;;;6.57;;
5587;SDS011;2816;49.778;9.986;2022-08-19T10:46:06;7.00;;;6.10;;
5587;SDS011;2816;49.778;9.986;2022-08-19T10:48:33;8.63;;;6.00;;
5587;SDS011;2816;49.778;9.986;2022-08-19T10:51:00;6.57;;;5.80;;
5587;SDS011;2816;49.778;9.986;2022-08-19T10:53:47;6.47;;;5.70;;
5587;SDS011;2816;49.778;9.986;2022-08-19T10:56:14;10.40;;;5.77;;
5587;SDS011;2816;49.778;9.986;2022-08-19T10:58:59;10.90;;;6.40;;
5587;SDS011;2816;49.778;9.986;2022-08-19T11:01:27;10.50;;;5.80;;
5587;SDS011;2816;49.778;9.986;2022-08-19T11:03:55;6.53;;;5.40;;
5587;SDS011;2816;49.778;9.986;2022-08-19T11:06:23;9.23;;;5.17;;
5587;SDS011;2816;49.778;9.986;2022-08-19T11:08:52;6.10;;;4.80;;
5587;SDS011;2816;49.778;9.986;2022-08-19T11:11:19;8.03;;;5.60;;
5587;SDS011;2816;49.778;9.986;2022-08-19T11:13:47;10.70;;;5.40;;
5587;SDS011;2816;49.778;9.986;2022-08-19T11:16:15;7.77;;;5.23;;
5587;SDS011;2816;49.778;9.986;2022-08-19T11:18:45;6.63;;;4.87;;
5587;SDS011;2816;49.778;9.986;2022-08-19T11:21:14;5.57;;;4.63;;
5587;SDS011;2816;49.778;9.986;2022-08-19T11:23:44;7.23;;;4.37;;
5587;SDS011;2816;49.778;9.986;2022-08-19T11:26:14;7.73;;;4.07;;
5587;SDS011;2816;49.778;9.986;2022-08-19T11:28:42;5.43;;;3.73;;
5587;SDS011;2816;49.778;9.986;2022-08-19T11:31:10;6.67;;;4.03;;
5587;SDS011;2816;49.778;9.986;2022-08-19T11:33:37;4.13;;;3.57;;
5587;SDS011;2816;49.778;9.986;2022-08-19T11:36:05;5.83;;;3.60;;
5587;SDS011;2816;49.778;9.986;2022-08-19T11:38:32;4.57;;;3.90;;
5587;SDS011;2816;49.778;9.986;2022-08-19T11:41:01;3.40;;;3.10;;
5587;SDS011;2816;49.778;9.986;2022-08-19T11:43:31;6.40;;;3.93;;
5587;SDS011;2816;49.778;9.986;2022-08-19T11:45:58;13.80;;;3.97;;
5587;SDS011;2816;49.778;9.986;2022-08-19T11:48:25;4.17;;;3.77;;
5587;SDS011;2816;49.778;9.986;2022-08-19T11:50:52;5.03;;;3.80;;
5587;SDS011;2816;49.778;9.986;2022-08-19T11:53:21;4.80;;;3.63;;
5587;SDS011;2816;49.778;9.986;2022-08-19T11:55:50;5.30;;;3.23;;
5587;SDS011;2816;49.778;9.986;2022-08-19T11:58:20;6.17;;;3.20;;
5587;SDS011;2816;49.778;9.986;2022-08-19T12:00:49;8.50;;;3.17;;
5587;SDS011;2816;49.778;9.986;2022-08-19T12:03:16;4.30;;;3.50;;
5587;SDS011;2816;49.778;9.986;2022-08-19T12:05:44;3.50;;;3.20;;
5587;SDS011;2816;49.778;9.986;2022-08-19T12:08:11;4.67;;;3.27;;
5587;SDS011;2816;49.778;9.986;2022-08-19T12:10:40;4.03;;;3.60;;
5587;SDS011;2816;49.778;9.986;2022-08-19T12:13:07;4.30;;;3.90;;
5587;SDS011;2816;49.778;9.986;2022-08-19T12:15:35;3.67;;;3.37;;
5587;SDS011;2816;49.778;9.986;2022-08-19T12:18:04;3.00;;;2.70;;
5587;SDS011;2816;49.778;9.986;2022-08-19T12:20:33;6.40;;;3.23;;
5587;SDS011;2816;49.778;9.986;2022-08-19T12:23:00;3.60;;;3.30;;
5587;SDS011;2816;49.778;9.986;2022-08-19T12:25:28;6.50;;;3.13;;
5587;SDS011;2816;49.778;9.986;2022-08-19T12:27:56;6.33;;;3.33;;
5587;SDS011;2816;49.778;9.986;2022-08-19T12:30:23;3.70;;;3.10;;
5587;SDS011;2816;49.778;9.986;2022-08-19T12:32:50;4.60;;;3.17;;
5587;SDS011;2816;49.778;9.986;2022-08-19T12:35:19;4.93;;;2.93;;
5587;SDS011;2816;49.778;9.986;2022-08-19T12:37:46;3.13;;;2.83;;
5587;SDS011;2816;49.778;9.986;2022-08-19T12:40:14;4.50;;;2.60;;
5587;SDS011;2816;49.778;9.986;2022-08-19T12:42:42;12.03;;;4.50;;
5587;SDS011;2816;49.778;9.986;2022-08-19T12:45:09;4.67;;;2.83;;
5587;SDS011;2816;49.778;9.986;2022-08-19T12:47:38;7.70;;;3.37;;
5587;SDS011;2816;49.778;9.986;2022-08-19T12:50:06;2.80;;;2.60;;
5587;SDS011;2816;49.778;9.986;2022-08-19T12:52:35;3.30;;;2.60;;
5587;SDS011;2816;49.778;9.986;2022-08-19T12:55:03;3.00;;;2.40;;
5587;SDS011;2816;49.778;9.986;2022-08-19T12:57:31;4.93;;;2.60;;
5587;SDS011;2816;49.778;9.986;2022-08-19T13:00:01;3.00;;;2.30;;
5587;SDS011;2816;49.778;9.986;2022-08-19T13:02:33;2.50;;;2.30;;
5587;SDS011;2816;49.778;9.986;2022-08-19T13:05:01;2.80;;;2.10;;
5587;SDS011;2816;49.778;9.986;2022-08-19T13:07:28;5.40;;;2.60;;
5587;SDS011;2816;49.778;9.986;2022-08-19T13:09:59;2.60;;;2.30;;
5587;SDS011;2816;49.778;9.986;2022-08-19T13:12:26;3.37;;;2.00;;
5587;SDS011;2816;49.778;9.986;2022-08-19T13:14:53;3.53;;;2.23;;
5587;SDS011;2816;49.778;9.986;2022-08-19T13:17:20;3.50;;;2.20;;
5587;SDS011;2816;49.778;9.986;2022-08-19T13:19:48;4.07;;;2.10;;
5587;SDS011;2816;49.778;9.986;2022-08-19T13:22:15;2.73;;;2.40;;
5587;SDS011;2816;49.778;9.986;2022-08-19T13:24:42;4.70;;;2.77;;
5587;SDS011;2816;49.778;9.986;2022-08-19T13:27:11;2.47;;;2.33;;
5587;SDS011;2816;49.778;9.986;2022-08-19T13:29:39;4.03;;;2.30;;
5587;SDS011;2816;49.778;9.986;2022-08-19T13:32:23;3.10;;;2.40;;
5587;SDS011;2816;49.778;9.986;2022-08-19T13:35:07;4.27;;;2.47;;
5587;SDS011;2816;49.778;9.986;2022-08-19T13:37:34;2.50;;;2.03;;
5587;SDS011;2816;49.778;9.986;2022-08-19T13:40:08;2.57;;;2.37;;
5587;SDS011;2816;49.778;9.986;2022-08-19T13:42:38;11.30;;;3.07;;
5587;SDS011;2816;49.778;9.986;2022-08-19T13:45:05;4.27;;;2.40;;
5587;SDS011;2816;49.778;9.986;2022-08-19T13:47:34;2.40;;;2.20;;
5587;SDS011;2816;49.778;9.986;2022-08-19T13:50:02;2.37;;;2.17;;
5587;SDS011;2816;49.778;9.986;2022-08-19T13:52:30;2.60;;;2.17;;
5587;SDS011;2816;49.778;9.986;2022-08-19T13:54:57;4.80;;;2.10;;
5587;SDS011;2816;49.778;9.986;2022-08-19T13:57:23;2.83;;;2.07;;
5587;SDS011;2816;49.778;9.986;2022-08-19T13:59:52;3.33;;;2.27;;
5587;SDS011;2816;49.778;9.986;2022-08-19T14:02:20;1.90;;;1.80;;
5587;SDS011;2816;49.778;9.986;2022-08-19T14:04:47;2.53;;;2.00;;
5587;SDS011;2816;49.778;9.986;2022-08-19T14:07:14;9.40;;;2.90;;
5587;SDS011;2816;49.778;9.986;2022-08-19T14:09:41;3.63;;;2.17;;
5587;SDS011;2816;49.778;9.986;2022-08-19T14:12:08;2.20;;;2.00;;
5587;SDS011;2816;49.778;9.986;2022-08-19T14:14:36;7.90;;;2.23;;
5587;SDS011;2816;49.778;9.986;2022-08-19T14:17:06;2.77;;;2.10;;
5587;SDS011;2816;49.778;9.986;2022-08-19T14:19:34;3.83;;;2.20;;
5587;SDS011;2816;49.778;9.986;2022-08-19T14:22:01;2.50;;;1.73;;
5587;SDS011;2816;49.778;9.986;2022-08-19T14:24:30;2.80;;;2.30;;
5587;SDS011;2816;49.778;9.986;2022-08-19T14:26:57;3.87;;;2.20;;
5587;SDS011;2816;49.778;9.986;2022-08-19T14:29:24;2.30;;;1.90;;
5587;SDS011;2816;49.778;9.986;2022-08-19T14:31:53;3.73;;;2.00;;
5587;SDS011;2816;49.778;9.986;2022-08-19T14:34:22;4.63;;;2.03;;
5587;SDS011;2816;49.778;9.986;2022-08-19T14:36:49;2.13;;;1.97;;
5587;SDS011;2816;49.778;9.986;2022-08-19T14:39:16;6.73;;;1.87;;
5587;SDS011;2816;49.778;9.986;2022-08-19T14:41:44;3.07;;;1.77;;
5587;SDS011;2816;49.778;9.986;2022-08-19T14:44:11;11.93;;;2.70;;
5587;SDS011;2816;49.778;9.986;2022-08-19T14:46:38;3.70;;;1.77;;
5587;SDS011;2816;49.778;9.986;2022-08-19T14:49:06;5.30;;;1.97;;
5587;SDS011;2816;49.778;9.986;2022-08-19T14:51:34;1.93;;;1.60;;
5587;SDS011;2816;49.778;9.986;2022-08-19T14:54:01;3.90;;;2.13;;
5587;SDS011;2816;49.778;9.986;2022-08-19T14:56:29;2.40;;;2.20;;
5587;SDS011;2816;49.778;9.986;2022-08-19T14:58:56;1.90;;;1.80;;
5587;SDS011;2816;49.778;9.986;2022-08-19T15:01:26;2.00;;;1.87;;
5587;SDS011;2816;49.778;9.986;2022-08-19T15:03:53;3.03;;;1.70;;
5587;SDS011;2816;49.778;9.986;2022-08-19T15:06:20;3.90;;;1.90;;